sensor_id;sensor_type;location;lat;lon;timestamp;pressure;altitude;pressure_sealevel;temperature
60936;BMP280;46804;51.786;19.520;2022-12-10T00:02:26;97356.84;;;0.71
60936;BMP280;46804;51.786;19.520;2022-12-10T00:06:29;97362.66;;;0.73
60936;BMP280;46804;51.786;19.520;2022-12-10T00:10:30;97364.94;;;0.70
60936;BMP280;46804;51.786;19.520;2022-12-10T00:14:30;97373.84;;;0.80
60936;BMP280;46804;51.786;19.520;2022-12-10T00:18:32;97377.13;;;0.76
60936;BMP280;46804;51.786;19.520;2022-12-10T00:22:32;97379.38;;;0.72
60936;BMP280;46804;51.786;19.520;2022-12-10T00:26:37;97384.31;;;0.80
60936;BMP280;46804;51.786;19.520;2022-12-10T00:30:38;97375.53;;;0.93
60936;BMP280;46804;51.786;19.520;2022-12-10T00:34:39;97373.69;;;0.93
60936;BMP280;46804;51.786;19.520;2022-12-10T00:38:40;97367.31;;;0.89
60936;BMP280;46804;51.786;19.520;2022-12-10T00:42:41;97370.06;;;0.94
60936;BMP280;46804;51.786;19.520;2022-12-10T00:46:42;97371.81;;;0.82
60936;BMP280;46804;51.786;19.520;2022-12-10T00:50:43;97369.13;;;0.89
60936;BMP280;46804;51.786;19.520;2022-12-10T00:54:43;97368.28;;;0.77
60936;BMP280;46804;51.786;19.520;2022-12-10T00:58:44;97371.53;;;0.90
60936;BMP280;46804;51.786;19.520;2022-12-10T01:02:46;97359.25;;;0.73
60936;BMP280;46804;51.786;19.520;2022-12-10T01:06:49;97361.06;;;0.72
60936;BMP280;46804;51.786;19.520;2022-12-10T01:10:53;97365.50;;;0.72
60936;BMP280;46804;51.786;19.520;2022-12-10T01:14:53;97366.72;;;0.69
60936;BMP280;46804;51.786;19.520;2022-12-10T01:18:56;97361.50;;;0.69
60936;BMP280;46804;51.786;19.520;2022-12-10T01:22:56;97367.47;;;0.76
60936;BMP280;46804;51.786;19.520;2022-12-10T01:26:57;97369.28;;;0.76
60936;BMP280;46804;51.786;19.520;2022-12-10T01:31:11;97375.03;;;0.67
60936;BMP280;46804;51.786;19.520;2022-12-10T01:35:12;97363.16;;;0.64
60936;BMP280;46804;51.786;19.520;2022-12-10T01:39:15;97363.56;;;0.68
60936;BMP280;46804;51.786;19.520;2022-12-10T01:43:16;97364.47;;;0.73
60936;BMP280;46804;51.786;19.520;2022-12-10T01:47:17;97357.06;;;0.70
60936;BMP280;46804;51.786;19.520;2022-12-10T01:51:18;97358.44;;;0.72
60936;BMP280;46804;51.786;19.520;2022-12-10T01:55:48;97354.06;;;0.84
60936;BMP280;46804;51.786;19.520;2022-12-10T01:59:53;97354.31;;;0.83
60936;BMP280;46804;51.786;19.520;2022-12-10T02:08:05;97348.31;;;0.76
60936;BMP280;46804;51.786;19.520;2022-12-10T02:12:26;97354.06;;;0.84
60936;BMP280;46804;51.786;19.520;2022-12-10T02:16:42;97356.09;;;0.82
60936;BMP280;46804;51.786;19.520;2022-12-10T02:20:48;97349.34;;;0.75
60936;BMP280;46804;51.786;19.520;2022-12-10T02:24:51;97357.72;;;0.66
60936;BMP280;46804;51.786;19.520;2022-12-10T02:29:05;97355.84;;;0.72
60936;BMP280;46804;51.786;19.520;2022-12-10T02:33:08;97358.13;;;0.80
60936;BMP280;46804;51.786;19.520;2022-12-10T02:37:20;97347.91;;;0.61
60936;BMP280;46804;51.786;19.520;2022-12-10T02:41:28;97357.06;;;0.70
60936;BMP280;46804;51.786;19.520;2022-12-10T02:45:31;97355.91;;;0.84
60936;BMP280;46804;51.786;19.520;2022-12-10T02:49:32;97360.47;;;0.88
60936;BMP280;46804;51.786;19.520;2022-12-10T02:53:41;97353.28;;;0.84
60936;BMP280;46804;51.786;19.520;2022-12-10T03:02:13;97351.03;;;0.69
60936;BMP280;46804;51.786;19.520;2022-12-10T03:06:28;97355.91;;;0.66
60936;BMP280;46804;51.786;19.520;2022-12-10T03:10:55;97347.19;;;0.72
60936;BMP280;46804;51.786;19.520;2022-12-10T03:14:59;97346.28;;;0.78
60936;BMP280;46804;51.786;19.520;2022-12-10T03:19:01;97351.91;;;0.64
60936;BMP280;46804;51.786;19.520;2022-12-10T03:23:05;97350.09;;;0.64
60936;BMP280;46804;51.786;19.520;2022-12-10T03:27:09;97352.97;;;0.74
60936;BMP280;46804;51.786;19.520;2022-12-10T03:31:12;97346.22;;;0.67
60936;BMP280;46804;51.786;19.520;2022-12-10T03:35:14;97350.47;;;0.68
60936;BMP280;46804;51.786;19.520;2022-12-10T03:39:16;97354.28;;;0.65
60936;BMP280;46804;51.786;19.520;2022-12-10T03:43:17;97361.13;;;0.66
60936;BMP280;46804;51.786;19.520;2022-12-10T03:47:18;97364.56;;;0.67
60936;BMP280;46804;51.786;19.520;2022-12-10T03:51:20;97361.00;;;0.61
60936;BMP280;46804;51.786;19.520;2022-12-10T03:55:20;97365.19;;;0.62
60936;BMP280;46804;51.786;19.520;2022-12-10T03:59:21;97351.66;;;0.65
60936;BMP280;46804;51.786;19.520;2022-12-10T04:03:22;97355.84;;;0.72
60936;BMP280;46804;51.786;19.520;2022-12-10T04:07:22;97369.19;;;0.65
60936;BMP280;46804;51.786;19.520;2022-12-10T04:11:23;97374.56;;;0.69
60936;BMP280;46804;51.786;19.520;2022-12-10T04:15:24;97378.22;;;0.68
60936;BMP280;46804;51.786;19.520;2022-12-10T04:19:43;97385.03;;;0.69
60936;BMP280;46804;51.786;19.520;2022-12-10T04:23:43;97384.50;;;0.68
60936;BMP280;46804;51.786;19.520;2022-12-10T04:28:03;97388.09;;;0.67
60936;BMP280;46804;51.786;19.520;2022-12-10T04:32:04;97393.41;;;0.78
60936;BMP280;46804;51.786;19.520;2022-12-10T04:36:05;97380.03;;;0.68
60936;BMP280;46804;51.786;19.520;2022-12-10T04:40:06;97388.84;;;0.73
60936;BMP280;46804;51.786;19.520;2022-12-10T04:44:07;97388.69;;;0.68
60936;BMP280;46804;51.786;19.520;2022-12-10T04:48:08;97387.00;;;0.56
60936;BMP280;46804;51.786;19.520;2022-12-10T04:52:11;97386.72;;;0.64
60936;BMP280;46804;51.786;19.520;2022-12-10T04:56:13;97385.94;;;0.64
60936;BMP280;46804;51.786;19.520;2022-12-10T05:00:13;97380.56;;;0.76
60936;BMP280;46804;51.786;19.520;2022-12-10T05:04:16;97375.69;;;0.62
60936;BMP280;46804;51.786;19.520;2022-12-10T05:08:17;97382.59;;;0.57
60936;BMP280;46804;51.786;19.520;2022-12-10T05:12:18;97381.22;;;0.72
60936;BMP280;46804;51.786;19.520;2022-12-10T05:16:20;97383.31;;;0.64
60936;BMP280;46804;51.786;19.520;2022-12-10T05:20:21;97393.78;;;0.64
60936;BMP280;46804;51.786;19.520;2022-12-10T05:24:22;97402.63;;;0.63
60936;BMP280;46804;51.786;19.520;2022-12-10T05:28:22;97401.19;;;0.67
60936;BMP280;46804;51.786;19.520;2022-12-10T05:32:23;97409.31;;;0.59
60936;BMP280;46804;51.786;19.520;2022-12-10T05:36:27;97412.25;;;0.68
60936;BMP280;46804;51.786;19.520;2022-12-10T05:40:27;97420.91;;;0.69
60936;BMP280;46804;51.786;19.520;2022-12-10T05:44:28;97416.16;;;0.60
60936;BMP280;46804;51.786;19.520;2022-12-10T05:48:29;97428.06;;;0.56
60936;BMP280;46804;51.786;19.520;2022-12-10T05:52:30;97441.31;;;0.61
60936;BMP280;46804;51.786;19.520;2022-12-10T05:56:31;97432.88;;;0.59
60936;BMP280;46804;51.786;19.520;2022-12-10T06:00:32;97434.94;;;0.57
60936;BMP280;46804;51.786;19.520;2022-12-10T06:04:32;97436.50;;;0.58
60936;BMP280;46804;51.786;19.520;2022-12-10T06:08:34;97430.16;;;0.47
60936;BMP280;46804;51.786;19.520;2022-12-10T06:12:34;97427.03;;;0.63
60936;BMP280;46804;51.786;19.520;2022-12-10T06:16:35;97420.97;;;0.63
60936;BMP280;46804;51.786;19.520;2022-12-10T06:20:39;97438.88;;;0.66
60936;BMP280;46804;51.786;19.520;2022-12-10T06:24:39;97435.44;;;0.65
60936;BMP280;46804;51.786;19.520;2022-12-10T06:28:40;97442.94;;;0.62
60936;BMP280;46804;51.786;19.520;2022-12-10T06:32:41;97432.88;;;0.59
60936;BMP280;46804;51.786;19.520;2022-12-10T06:36:45;97437.84;;;0.67
60936;BMP280;46804;51.786;19.520;2022-12-10T06:40:46;97444.97;;;0.60
60936;BMP280;46804;51.786;19.520;2022-12-10T06:44:46;97436.97;;;0.55
60936;BMP280;46804;51.786;19.520;2022-12-10T06:48:47;97447.44;;;0.55
60936;BMP280;46804;51.786;19.520;2022-12-10T06:52:49;97442.19;;;0.55
60936;BMP280;46804;51.786;19.520;2022-12-10T06:56:51;97452.38;;;0.63
60936;BMP280;46804;51.786;19.520;2022-12-10T07:00:51;97451.84;;;0.54
60936;BMP280;46804;51.786;19.520;2022-12-10T07:04:52;97455.88;;;0.57
60936;BMP280;46804;51.786;19.520;2022-12-10T07:08:56;97453.81;;;0.59
60936;BMP280;46804;51.786;19.520;2022-12-10T07:12:57;97453.81;;;0.59
60936;BMP280;46804;51.786;19.520;2022-12-10T07:16:58;97449.41;;;0.59
60936;BMP280;46804;51.786;19.520;2022-12-10T07:20:58;97451.63;;;0.56
60936;BMP280;46804;51.786;19.520;2022-12-10T07:24:59;97458.34;;;0.69
60936;BMP280;46804;51.786;19.520;2022-12-10T07:29:00;97455.38;;;0.66
60936;BMP280;46804;51.786;19.520;2022-12-10T07:33:01;97450.13;;;0.66
60936;BMP280;46804;51.786;19.520;2022-12-10T07:37:02;97458.19;;;0.65
60936;BMP280;46804;51.786;19.520;2022-12-10T07:41:10;97457.78;;;0.68
60936;BMP280;46804;51.786;19.520;2022-12-10T07:45:11;97455.72;;;0.69
60936;BMP280;46804;51.786;19.520;2022-12-10T07:49:12;97455.81;;;0.63
60936;BMP280;46804;51.786;19.520;2022-12-10T07:53:12;97444.09;;;0.66
60936;BMP280;46804;51.786;19.520;2022-12-10T07:57:13;97452.28;;;0.51
60936;BMP280;46804;51.786;19.520;2022-12-10T08:01:18;97453.41;;;0.62
60936;BMP280;46804;51.786;19.520;2022-12-10T08:05:19;97466.75;;;0.54
60936;BMP280;46804;51.786;19.520;2022-12-10T08:09:20;97474.44;;;0.49
60936;BMP280;46804;51.786;19.520;2022-12-10T08:13:21;97480.41;;;0.56
60936;BMP280;46804;51.786;19.520;2022-12-10T08:17:21;97472.34;;;0.57
60936;BMP280;46804;51.786;19.520;2022-12-10T08:21:25;97468.25;;;0.68
60936;BMP280;46804;51.786;19.520;2022-12-10T08:25:25;97478.28;;;0.70
60936;BMP280;46804;51.786;19.520;2022-12-10T08:29:26;97469.72;;;0.81
60936;BMP280;46804;51.786;19.520;2022-12-10T08:33:26;97477.41;;;0.76
60936;BMP280;46804;51.786;19.520;2022-12-10T08:37:27;97473.31;;;0.80
60936;BMP280;46804;51.786;19.520;2022-12-10T08:41:28;97483.38;;;0.83
60936;BMP280;46804;51.786;19.520;2022-12-10T08:45:28;97482.16;;;0.86
60936;BMP280;46804;51.786;19.520;2022-12-10T08:49:29;97477.59;;;0.99
60936;BMP280;46804;51.786;19.520;2022-12-10T08:53:30;97466.66;;;1.02
60936;BMP280;46804;51.786;19.520;2022-12-10T08:57:30;97471.91;;;1.02
60936;BMP280;46804;51.786;19.520;2022-12-10T09:01:31;97473.84;;;1.06
60936;BMP280;46804;51.786;19.520;2022-12-10T09:05:34;97477.06;;;1.08
60936;BMP280;46804;51.786;19.520;2022-12-10T09:09:34;97481.44;;;0.97
60936;BMP280;46804;51.786;19.520;2022-12-10T09:13:35;97473.91;;;0.82
60936;BMP280;46804;51.786;19.520;2022-12-10T09:17:36;97474.38;;;0.97
60936;BMP280;46804;51.786;19.520;2022-12-10T09:21:38;97479.63;;;0.97
60936;BMP280;46804;51.786;19.520;2022-12-10T09:25:39;97490.69;;;0.99
60936;BMP280;46804;51.786;19.520;2022-12-10T09:29:39;97482.38;;;1.02
60936;BMP280;46804;51.786;19.520;2022-12-10T09:33:40;97493.09;;;1.01
60936;BMP280;46804;51.786;19.520;2022-12-10T09:37:41;97492.13;;;1.13
60936;BMP280;46804;51.786;19.520;2022-12-10T09:46:34;97493.31;;;1.17
60936;BMP280;46804;51.786;19.520;2022-12-10T09:50:55;97499.13;;;1.19
60936;BMP280;46804;51.786;19.520;2022-12-10T09:55:11;97484.72;;;1.10
60936;BMP280;46804;51.786;19.520;2022-12-10T09:59:22;97483.63;;;1.17
60936;BMP280;46804;51.786;19.520;2022-12-10T10:03:25;97477.31;;;1.07
60936;BMP280;46804;51.786;19.520;2022-12-10T10:07:28;97469.31;;;1.20
60936;BMP280;46804;51.786;19.520;2022-12-10T10:11:32;97463.91;;;1.15
60936;BMP280;46804;51.786;19.520;2022-12-10T10:15:36;97449.72;;;1.22
60936;BMP280;46804;51.786;19.520;2022-12-10T10:19:37;97442.78;;;1.28
60936;BMP280;46804;51.786;19.520;2022-12-10T10:23:41;97435.38;;;1.25
60936;BMP280;46804;51.786;19.520;2022-12-10T10:27:44;97448.28;;;1.26
60936;BMP280;46804;51.786;19.520;2022-12-10T10:31:45;97445.16;;;1.18
60936;BMP280;46804;51.786;19.520;2022-12-10T10:35:55;97445.50;;;1.21
60936;BMP280;46804;51.786;19.520;2022-12-10T10:39:58;97440.78;;;1.12
60936;BMP280;46804;51.786;19.520;2022-12-10T10:44:02;97430.28;;;1.12
60936;BMP280;46804;51.786;19.520;2022-12-10T10:48:14;97442.09;;;1.03
60936;BMP280;46804;51.786;19.520;2022-12-10T10:52:16;97435.09;;;0.97
60936;BMP280;46804;51.786;19.520;2022-12-10T10:56:41;97432.13;;;1.11
60936;BMP280;46804;51.786;19.520;2022-12-10T11:01:06;97435.41;;;1.07
60936;BMP280;46804;51.786;19.520;2022-12-10T11:05:24;97442.16;;;0.97
60936;BMP280;46804;51.786;19.520;2022-12-10T11:09:31;97435.16;;;1.08
60936;BMP280;46804;51.786;19.520;2022-12-10T11:13:34;97433.84;;;1.17
60936;BMP280;46804;51.786;19.520;2022-12-10T11:17:46;97428.34;;;1.07
60936;BMP280;46804;51.786;19.520;2022-12-10T11:21:47;97421.47;;;1.06
60936;BMP280;46804;51.786;19.520;2022-12-10T11:30:03;97421.94;;;1.03
60936;BMP280;46804;51.786;19.520;2022-12-10T11:38:50;97424.47;;;1.10
60936;BMP280;46804;51.786;19.520;2022-12-10T11:43:27;97436.03;;;1.20
60936;BMP280;46804;51.786;19.520;2022-12-10T11:47:42;97439.91;;;1.18
60936;BMP280;46804;51.786;19.520;2022-12-10T11:56:20;97440.47;;;1.02
60936;BMP280;46804;51.786;19.520;2022-12-10T12:00:37;97461.34;;;1.08
60936;BMP280;46804;51.786;19.520;2022-12-10T12:05:14;97458.16;;;1.06
60936;BMP280;46804;51.786;19.520;2022-12-10T12:09:29;97472.00;;;1.31
60936;BMP280;46804;51.786;19.520;2022-12-10T12:18:21;97475.69;;;1.24
60936;BMP280;46804;51.786;19.520;2022-12-10T12:22:33;97476.25;;;1.26
60936;BMP280;46804;51.786;19.520;2022-12-10T12:26:37;97474.38;;;1.33
60936;BMP280;46804;51.786;19.520;2022-12-10T12:30:41;97482.53;;;1.25
60936;BMP280;46804;51.786;19.520;2022-12-10T12:35:03;97485.75;;;1.27
60936;BMP280;46804;51.786;19.520;2022-12-10T12:39:26;97475.59;;;1.30
60936;BMP280;46804;51.786;19.520;2022-12-10T12:47:53;97481.16;;;1.40
60936;BMP280;46804;51.786;19.520;2022-12-10T12:52:00;97475.75;;;1.17
60936;BMP280;46804;51.786;19.520;2022-12-10T13:00:23;97488.38;;;1.27
60936;BMP280;46804;51.786;19.520;2022-12-10T13:04:24;97484.28;;;1.31
60936;BMP280;46804;51.786;19.520;2022-12-10T13:08:29;97481.09;;;1.29
60936;BMP280;46804;51.786;19.520;2022-12-10T13:12:30;97480.50;;;1.09
60936;BMP280;46804;51.786;19.520;2022-12-10T13:20:48;97481.72;;;1.06
60936;BMP280;46804;51.786;19.520;2022-12-10T13:25:05;97477.59;;;0.99
60936;BMP280;46804;51.786;19.520;2022-12-10T13:29:23;97475.94;;;1.04
60936;BMP280;46804;51.786;19.520;2022-12-10T13:33:24;97482.28;;;0.91
60936;BMP280;46804;51.786;19.520;2022-12-10T13:37:30;97481.78;;;1.00
60936;BMP280;46804;51.786;19.520;2022-12-10T13:41:32;97477.59;;;0.99
60936;BMP280;46804;51.786;19.520;2022-12-10T13:46:21;97499.56;;;0.98
60936;BMP280;46804;51.786;19.520;2022-12-10T13:59:16;97470.09;;;1.02
60936;BMP280;46804;51.786;19.520;2022-12-10T14:07:31;97440.91;;;0.99
60936;BMP280;46804;51.786;19.520;2022-12-10T14:11:36;97447.09;;;0.87
60936;BMP280;46804;51.786;19.520;2022-12-10T14:15:38;97450.66;;;0.92
60936;BMP280;46804;51.786;19.520;2022-12-10T14:19:39;97446.75;;;0.83
60936;BMP280;46804;51.786;19.520;2022-12-10T14:23:47;97452.19;;;0.82
60936;BMP280;46804;51.786;19.520;2022-12-10T14:27:52;97449.34;;;0.83
60936;BMP280;46804;51.786;19.520;2022-12-10T14:31:53;97444.72;;;0.85
60936;BMP280;46804;51.786;19.520;2022-12-10T14:35:54;97459.38;;;0.86
60936;BMP280;46804;51.786;19.520;2022-12-10T14:39:55;97457.13;;;0.90
60936;BMP280;46804;51.786;19.520;2022-12-10T14:43:58;97475.22;;;0.91
60936;BMP280;46804;51.786;19.520;2022-12-10T14:48:01;97478.88;;;0.90
60936;BMP280;46804;51.786;19.520;2022-12-10T14:52:19;97484.38;;;0.82
60936;BMP280;46804;51.786;19.520;2022-12-10T14:56:30;97487.38;;;0.86
60936;BMP280;46804;51.786;19.520;2022-12-10T15:00:33;97498.38;;;0.94
60936;BMP280;46804;51.786;19.520;2022-12-10T15:04:45;97495.91;;;0.99
60936;BMP280;46804;51.786;19.520;2022-12-10T15:08:48;97507.53;;;0.85
60936;BMP280;46804;51.786;19.520;2022-12-10T15:12:50;97504.22;;;0.96
60936;BMP280;46804;51.786;19.520;2022-12-10T15:16:51;97489.03;;;1.04
60936;BMP280;46804;51.786;19.520;2022-12-10T15:25:20;97478.16;;;0.83
60936;BMP280;46804;51.786;19.520;2022-12-10T15:33:36;97520.44;;;1.04
60936;BMP280;46804;51.786;19.520;2022-12-10T15:37:39;97516.16;;;1.10
60936;BMP280;46804;51.786;19.520;2022-12-10T15:41:48;97520.41;;;0.87
60936;BMP280;46804;51.786;19.520;2022-12-10T15:45:50;97523.13;;;0.98
60936;BMP280;46804;51.786;19.520;2022-12-10T15:49:52;97513.13;;;0.89
60936;BMP280;46804;51.786;19.520;2022-12-10T15:53:53;97521.78;;;0.65
60936;BMP280;46804;51.786;19.520;2022-12-10T15:57:54;97509.91;;;0.87
60936;BMP280;46804;51.786;19.520;2022-12-10T16:02:01;97521.22;;;0.87
60936;BMP280;46804;51.786;19.520;2022-12-10T16:06:03;97525.56;;;0.93
60936;BMP280;46804;51.786;19.520;2022-12-10T16:10:04;97517.63;;;0.82
60936;BMP280;46804;51.786;19.520;2022-12-10T16:14:05;97516.97;;;0.86
60936;BMP280;46804;51.786;19.520;2022-12-10T16:18:09;97506.94;;;0.83
60936;BMP280;46804;51.786;19.520;2022-12-10T16:22:10;97504.00;;;0.73
60936;BMP280;46804;51.786;19.520;2022-12-10T16:26:15;97501.03;;;0.70
60936;BMP280;46804;51.786;19.520;2022-12-10T16:30:21;97505.13;;;0.84
60936;BMP280;46804;51.786;19.520;2022-12-10T16:34:22;97506.38;;;0.81
60936;BMP280;46804;51.786;19.520;2022-12-10T16:38:23;97510.91;;;0.92
60936;BMP280;46804;51.786;19.520;2022-12-10T16:42:25;97511.59;;;0.81
60936;BMP280;46804;51.786;19.520;2022-12-10T16:46:26;97521.50;;;0.97
60936;BMP280;46804;51.786;19.520;2022-12-10T16:50:27;97532.28;;;0.89
60936;BMP280;46804;51.786;19.520;2022-12-10T16:54:27;97529.94;;;0.81
60936;BMP280;46804;51.786;19.520;2022-12-10T16:58:28;97515.97;;;0.87
60936;BMP280;46804;51.786;19.520;2022-12-10T17:02:28;97511.34;;;0.89
60936;BMP280;46804;51.786;19.520;2022-12-10T17:06:29;97535.31;;;0.86
60936;BMP280;46804;51.786;19.520;2022-12-10T17:10:29;97521.56;;;0.91
60936;BMP280;46804;51.786;19.520;2022-12-10T17:14:49;97527.66;;;0.85
60936;BMP280;46804;51.786;19.520;2022-12-10T17:18:51;97531.09;;;0.85
60936;BMP280;46804;51.786;19.520;2022-12-10T17:22:54;97532.53;;;0.81
60936;BMP280;46804;51.786;19.520;2022-12-10T17:26:57;97531.41;;;0.71
60936;BMP280;46804;51.786;19.520;2022-12-10T17:30:59;97535.59;;;0.78
60936;BMP280;46804;51.786;19.520;2022-12-10T17:34:59;97528.84;;;0.65
60936;BMP280;46804;51.786;19.520;2022-12-10T17:39:00;97529.94;;;0.81
60936;BMP280;46804;51.786;19.520;2022-12-10T17:43:00;97519.34;;;0.70
60936;BMP280;46804;51.786;19.520;2022-12-10T17:47:05;97509.59;;;0.59
60936;BMP280;46804;51.786;19.520;2022-12-10T17:51:13;97518.34;;;0.47
60936;BMP280;46804;51.786;19.520;2022-12-10T17:55:13;97512.78;;;0.61
60936;BMP280;46804;51.786;19.520;2022-12-10T17:59:14;97507.63;;;0.55
60936;BMP280;46804;51.786;19.520;2022-12-10T18:03:15;97510.53;;;0.65
60936;BMP280;46804;51.786;19.520;2022-12-10T18:07:17;97515.03;;;0.58
60936;BMP280;46804;51.786;19.520;2022-12-10T18:11:21;97521.59;;;0.67
60936;BMP280;46804;51.786;19.520;2022-12-10T18:15:23;97513.25;;;0.52
60936;BMP280;46804;51.786;19.520;2022-12-10T18:19:24;97519.06;;;0.30
60936;BMP280;46804;51.786;19.520;2022-12-10T18:23:25;97520.34;;;0.45
60936;BMP280;46804;51.786;19.520;2022-12-10T18:27:25;97516.19;;;0.37
60936;BMP280;46804;51.786;19.520;2022-12-10T18:31:28;97522.03;;;0.39
60936;BMP280;46804;51.786;19.520;2022-12-10T18:35:29;97531.25;;;0.42
60936;BMP280;46804;51.786;19.520;2022-12-10T18:39:31;97531.47;;;0.40
60936;BMP280;46804;51.786;19.520;2022-12-10T18:43:34;97532.81;;;0.49
60936;BMP280;46804;51.786;19.520;2022-12-10T18:47:35;97537.25;;;0.49
60936;BMP280;46804;51.786;19.520;2022-12-10T18:51:36;97538.53;;;0.40
60936;BMP280;46804;51.786;19.520;2022-12-10T18:55:36;97531.50;;;0.34
60936;BMP280;46804;51.786;19.520;2022-12-10T18:59:37;97536.16;;;0.32
60936;BMP280;46804;51.786;19.520;2022-12-10T19:03:38;97526.47;;;0.32
60936;BMP280;46804;51.786;19.520;2022-12-10T19:07:39;97531.91;;;0.37
60936;BMP280;46804;51.786;19.520;2022-12-10T19:11:39;97534.91;;;0.34
60936;BMP280;46804;51.786;19.520;2022-12-10T19:15:40;97532.53;;;0.33
60936;BMP280;46804;51.786;19.520;2022-12-10T19:19:40;97533.88;;;0.42
60936;BMP280;46804;51.786;19.520;2022-12-10T19:23:41;97531.56;;;0.52
60936;BMP280;46804;51.786;19.520;2022-12-10T19:27:41;97528.75;;;0.29
60936;BMP280;46804;51.786;19.520;2022-12-10T19:31:43;97527.66;;;0.36
60936;BMP280;46804;51.786;19.520;2022-12-10T19:35:44;97526.06;;;0.35
60936;BMP280;46804;51.786;19.520;2022-12-10T19:39:45;97523.66;;;0.34
60936;BMP280;46804;51.786;19.520;2022-12-10T19:43:46;97520.81;;;0.42
60936;BMP280;46804;51.786;19.520;2022-12-10T19:47:48;97523.56;;;0.47
60936;BMP280;46804;51.786;19.520;2022-12-10T19:51:52;97530.72;;;0.33
60936;BMP280;46804;51.786;19.520;2022-12-10T19:55:53;97524.84;;;0.38
60936;BMP280;46804;51.786;19.520;2022-12-10T19:59:53;97528.53;;;0.31
60936;BMP280;46804;51.786;19.520;2022-12-10T20:03:55;97531.81;;;0.20
60936;BMP280;46804;51.786;19.520;2022-12-10T20:07:56;97526.63;;;0.13
60936;BMP280;46804;51.786;19.520;2022-12-10T20:11:57;97523.59;;;0.16
60936;BMP280;46804;51.786;19.520;2022-12-10T20:15:57;97525.44;;;0.09
60936;BMP280;46804;51.786;19.520;2022-12-10T20:19:58;97530.69;;;0.09
60936;BMP280;46804;51.786;19.520;2022-12-10T20:23:58;97526.84;;;0.12
60936;BMP280;46804;51.786;19.520;2022-12-10T20:27:59;97522.25;;;0.07
60936;BMP280;46804;51.786;19.520;2022-12-10T20:32:01;97511.78;;;0.07
60936;BMP280;46804;51.786;19.520;2022-12-10T20:36:04;97528.13;;;-0.03
60936;BMP280;46804;51.786;19.520;2022-12-10T20:40:05;97533.59;;;-0.11
60936;BMP280;46804;51.786;19.520;2022-12-10T20:44:06;97539.44;;;-0.09
60936;BMP280;46804;51.786;19.520;2022-12-10T20:48:08;97518.69;;;-0.04
60936;BMP280;46804;51.786;19.520;2022-12-10T20:52:10;97523.50;;;-0.01
60936;BMP280;46804;51.786;19.520;2022-12-10T20:56:15;97517.69;;;-0.03
60936;BMP280;46804;51.786;19.520;2022-12-10T21:00:19;97527.66;;;-0.25
60936;BMP280;46804;51.786;19.520;2022-12-10T21:04:20;97527.19;;;-0.15
60936;BMP280;46804;51.786;19.520;2022-12-10T21:08:21;97517.47;;;-0.02
60936;BMP280;46804;51.786;19.520;2022-12-10T21:12:21;97517.28;;;-0.07
60936;BMP280;46804;51.786;19.520;2022-12-10T21:16:22;97504.78;;;0.01
60936;BMP280;46804;51.786;19.520;2022-12-10T21:20:24;97499.81;;;-0.06
60936;BMP280;46804;51.786;19.520;2022-12-10T21:24:25;97498.75;;;0.01
60936;BMP280;46804;51.786;19.520;2022-12-10T21:28:26;97503.78;;;0.02
60936;BMP280;46804;51.786;19.520;2022-12-10T21:32:26;97499.59;;;-0.05
60936;BMP280;46804;51.786;19.520;2022-12-10T21:36:27;97496.72;;;0.03
60936;BMP280;46804;51.786;19.520;2022-12-10T21:40:28;97499.59;;;-0.05
60936;BMP280;46804;51.786;19.520;2022-12-10T21:44:29;97498.16;;;-0.01
60936;BMP280;46804;51.786;19.520;2022-12-10T21:48:30;97499.22;;;-0.08
60936;BMP280;46804;51.786;19.520;2022-12-10T21:52:30;97507.06;;;-0.08
60936;BMP280;46804;51.786;19.520;2022-12-10T21:56:31;97506.47;;;-0.10
60936;BMP280;46804;51.786;19.520;2022-12-10T22:00:31;97517.66;;;-0.34
60936;BMP280;46804;51.786;19.520;2022-12-10T22:04:32;97511.16;;;-0.25
60936;BMP280;46804;51.786;19.520;2022-12-10T22:08:33;97523.22;;;-0.24
60936;BMP280;46804;51.786;19.520;2022-12-10T22:12:34;97524.41;;;-0.20
60936;BMP280;46804;51.786;19.520;2022-12-10T22:16:35;97531.63;;;-0.16
60936;BMP280;46804;51.786;19.520;2022-12-10T22:20:36;97527.41;;;-0.17
60936;BMP280;46804;51.786;19.520;2022-12-10T22:24:37;97516.88;;;-0.04
60936;BMP280;46804;51.786;19.520;2022-12-10T22:28:38;97503.81;;;-0.04
60936;BMP280;46804;51.786;19.520;2022-12-10T22:32:38;97499.97;;;-0.01
60936;BMP280;46804;51.786;19.520;2022-12-10T22:36:41;97495.38;;;-0.06
60936;BMP280;46804;51.786;19.520;2022-12-10T22:40:42;97496.97;;;-0.05
60936;BMP280;46804;51.786;19.520;2022-12-10T22:44:42;97495.38;;;-0.06
60936;BMP280;46804;51.786;19.520;2022-12-10T22:48:43;97486.34;;;-0.10
60936;BMP280;46804;51.786;19.520;2022-12-10T22:52:44;97484.53;;;-0.09
60936;BMP280;46804;51.786;19.520;2022-12-10T22:56:44;97469.94;;;-0.23
60936;BMP280;46804;51.786;19.520;2022-12-10T23:00:45;97470.75;;;-0.23
60936;BMP280;46804;51.786;19.520;2022-12-10T23:04:50;97455.22;;;-0.18
60936;BMP280;46804;51.786;19.520;2022-12-10T23:08:51;97455.53;;;-0.32
60936;BMP280;46804;51.786;19.520;2022-12-10T23:12:51;97460.47;;;-0.24
60936;BMP280;46804;51.786;19.520;2022-12-10T23:17:07;97456.72;;;-0.28
60936;BMP280;46804;51.786;19.520;2022-12-10T23:21:16;97453.28;;;-0.29
60936;BMP280;46804;51.786;19.520;2022-12-10T23:25:17;97445.75;;;-0.43
60936;BMP280;46804;51.786;19.520;2022-12-10T23:29:18;97455.41;;;-0.43
60936;BMP280;46804;51.786;19.520;2022-12-10T23:33:18;97448.31;;;-0.36
60936;BMP280;46804;51.786;19.520;2022-12-10T23:37:19;97456.56;;;-0.39
60936;BMP280;46804;51.786;19.520;2022-12-10T23:41:19;97458.41;;;-0.46
60936;BMP280;46804;51.786;19.520;2022-12-10T23:45:20;97455.16;;;-0.42
60936;BMP280;46804;51.786;19.520;2022-12-10T23:49:23;97442.69;;;-0.40
60936;BMP280;46804;51.786;19.520;2022-12-10T23:53:23;97440.69;;;-0.38
60936;BMP280;46804;51.786;19.520;2022-12-10T23:57:24;97439.91;;;-0.45
